Time;durP1;ratioP1;P1;durP2;ratioP2;P2;SDS_P1;SDS_P2;PMS_P1;PMS_P2;Temp;Humidity;BMP_temperature;BMP_pressure;BME280_temperature;BME280_humidity;BME280_pressure;Samples;Min_cycle;Max_cycle;Signal;HPM_P1;HPM_P2
2022/12/20 00:00:42;;;;;;;2.28;2.05;;;;;;;;;;5075482;28;20020;-80
2022/12/20 00:03:08;;;;;;;1.92;1.73;;;;;;;;;;5075935;28;20105;-82
2022/12/20 00:05:37;;;;;;;2.70;2.13;;;;;;;;;;5075725;28;20025;-80
2022/12/20 00:08:02;;;;;;;4.82;2.78;;;;;;;;;;5053502;28;20108;-80
2022/12/20 00:10:28;;;;;;;1.65;1.55;;;;;;;;;;5074538;28;20056;-81
2022/12/20 00:12:54;;;;;;;2.03;1.85;;;;;;;;;;5057265;28;20032;-82
2022/12/20 00:15:19;;;;;;;1.98;1.77;;;;;;;;;;5055788;28;20384;-81
2022/12/20 00:17:44;;;;;;;5.53;2.42;;;;;;;;;;5057658;28;20464;-81
2022/12/20 00:20:10;;;;;;;5.22;3.28;;;;;;;;;;5074859;28;20028;-82
2022/12/20 00:22:36;;;;;;;3.35;3.03;;;;;;;;;;5075568;28;20033;-81
2022/12/20 00:25:02;;;;;;;1.88;1.55;;;;;;;;;;5074667;28;20446;-81
2022/12/20 00:27:28;;;;;;;5.60;2.25;;;;;;;;;;5056772;28;20471;-81
2022/12/20 00:29:54;;;;;;;2.35;1.88;;;;;;;;;;5074954;28;20096;-81
2022/12/20 00:32:19;;;;;;;3.45;2.05;;;;;;;;;;5075685;28;20469;-81
2022/12/20 00:34:45;;;;;;;2.05;1.58;;;;;;;;;;5072293;28;20431;-81
2022/12/20 00:37:10;;;;;;;4.88;2.40;;;;;;;;;;5075372;28;20063;-81
2022/12/20 00:39:36;;;;;;;1.40;1.23;;;;;;;;;;5073807;28;20415;-81
2022/12/20 00:42:01;;;;;;;1.70;1.60;;;;;;;;;;5074444;28;20020;-81
2022/12/20 00:44:27;;;;;;;1.90;1.10;;;;;;;;;;5052220;28;20073;-80
2022/12/20 00:46:52;;;;;;;1.30;1.20;;;;;;;;;;5056866;28;20032;-81
2022/12/20 00:49:18;;;;;;;3.20;2.55;;;;;;;;;;5056061;28;20017;-81
2022/12/20 00:51:43;;;;;;;5.05;2.72;;;;;;;;;;5075291;28;20040;-80
2022/12/20 00:54:09;;;;;;;2.20;1.45;;;;;;;;;;5074222;28;20020;-81
2022/12/20 00:56:34;;;;;;;2.40;2.20;;;;;;;;;;5075405;28;20557;-83
2022/12/20 00:59:00;;;;;;;2.55;1.92;;;;;;;;;;5053384;28;20506;-81
2022/12/20 01:01:30;;;;;;;3.40;1.88;;;;;;;;;;5075136;28;20027;-82
2022/12/20 01:03:56;;;;;;;2.55;2.08;;;;;;;;;;5054713;28;20028;-82
2022/12/20 01:06:24;;;;;;;2.55;1.80;;;;;;;;;;5074403;28;20028;-82
2022/12/20 01:08:50;;;;;;;2.05;1.50;;;;;;;;;;5074764;28;20080;-82
2022/12/20 01:11:25;;;;;;;3.17;2.05;;;;;;;;;;5053020;28;20107;-81
2022/12/20 01:13:54;;;;;;;1.70;1.42;;;;;;;;;;5074952;28;20020;-82
2022/12/20 01:16:24;;;;;;;2.88;2.33;;;;;;;;;;5072142;28;20020;-83
2022/12/20 01:18:50;;;;;;;1.23;1.15;;;;;;;;;;5052950;28;20119;-81
2022/12/20 01:21:18;;;;;;;2.60;1.58;;;;;;;;;;5071812;28;20052;-82
2022/12/20 01:23:43;;;;;;;3.85;2.22;;;;;;;;;;5071793;28;20498;-82
2022/12/20 01:26:15;;;;;;;1.55;1.45;;;;;;;;;;5055562;28;20075;-82
2022/12/20 01:28:42;;;;;;;1.77;1.02;;;;;;;;;;5072450;28;20103;-82
2022/12/20 01:31:10;;;;;;;3.85;2.85;;;;;;;;;;5072815;28;20361;-81
2022/12/20 01:33:36;;;;;;;2.53;1.67;;;;;;;;;;5053833;28;20027;-82
2022/12/20 01:36:06;;;;;;;2.53;1.20;;;;;;;;;;5051275;28;20025;-82
2022/12/20 01:38:34;;;;;;;1.55;1.45;;;;;;;;;;5073221;28;20052;-83
2022/12/20 01:41:00;;;;;;;3.00;1.73;;;;;;;;;;5072484;28;20034;-82
2022/12/20 01:43:46;;;;;;;5.00;1.98;;;;;;;;;;5055048;28;20028;-82
2022/12/20 01:46:11;;;;;;;2.08;1.00;;;;;;;;;;5071906;28;20105;-82
2022/12/20 01:48:37;;;;;;;1.30;1.20;;;;;;;;;;5053851;28;20059;-82
2022/12/20 01:51:03;;;;;;;6.18;2.55;;;;;;;;;;5072154;28;20021;-84
2022/12/20 01:53:30;;;;;;;1.38;1.15;;;;;;;;;;5055972;28;20028;-82
2022/12/20 01:55:58;;;;;;;3.38;1.40;;;;;;;;;;5055637;28;20127;-83
2022/12/20 01:58:24;;;;;;;4.18;2.40;;;;;;;;;;5056575;28;20017;-83
2022/12/20 02:00:49;;;;;;;1.67;1.58;;;;;;;;;;5072057;28;20032;-82
2022/12/20 02:03:15;;;;;;;0.90;0.90;;;;;;;;;;5082641;28;20388;-82
2022/12/20 02:05:46;;;;;;;1.85;1.35;;;;;;;;;;5093994;28;20024;-80
2022/12/20 02:08:15;;;;;;;1.25;1.20;;;;;;;;;;5092357;28;20036;-82
2022/12/20 02:11:13;;;;;;;6.28;2.40;;;;;;;;;;5093939;28;20021;-83
2022/12/20 02:13:49;;;;;;;4.57;2.45;;;;;;;;;;5093813;28;20082;-82
2022/12/20 02:16:23;;;;;;;1.83;1.73;;;;;;;;;;5093290;28;20077;-81
2022/12/20 02:19:00;;;;;;;2.25;2.05;;;;;;;;;;5093006;28;20027;-82
2022/12/20 02:21:47;;;;;;;2.42;2.22;;;;;;;;;;5090284;28;20483;-82
2022/12/20 02:24:37;;;;;;;1.80;1.10;;;;;;;;;;5095233;28;20385;-81
2022/12/20 02:27:28;;;;;;;3.40;2.03;;;;;;;;;;5097614;28;20468;-82
2022/12/20 02:30:15;;;;;;;0.77;0.77;;;;;;;;;;5085497;28;20031;-81
2022/12/20 02:32:48;;;;;;;3.78;1.70;;;;;;;;;;5095100;28;20038;-82
2022/12/20 02:35:20;;;;;;;2.08;1.98;;;;;;;;;;5097055;28;20102;-82
2022/12/20 02:37:51;;;;;;;1.75;1.15;;;;;;;;;;5097525;28;20028;-82
2022/12/20 02:40:23;;;;;;;2.13;1.98;;;;;;;;;;5095454;28;20032;-82
2022/12/20 02:42:52;;;;;;;8.77;2.42;;;;;;;;;;5096738;28;20031;-82
2022/12/20 02:45:21;;;;;;;1.50;1.35;;;;;;;;;;5095722;28;20031;-82
2022/12/20 02:47:59;;;;;;;1.77;1.58;;;;;;;;;;5096480;28;20035;-82
2022/12/20 02:50:38;;;;;;;1.73;1.60;;;;;;;;;;5091853;28;20043;-82
2022/12/20 02:53:05;;;;;;;3.08;2.35;;;;;;;;;;5090447;28;20020;-81
2022/12/20 02:55:58;;;;;;;5.78;3.17;;;;;;;;;;5095751;28;20387;-82
2022/12/20 02:58:39;;;;;;;6.05;2.90;;;;;;;;;;5094603;28;20024;-82
2022/12/20 03:01:18;;;;;;;2.92;1.50;;;;;;;;;;5096375;28;20032;-81
2022/12/20 03:03:44;;;;;;;1.33;1.17;;;;;;;;;;5095682;28;20044;-83
2022/12/20 03:06:09;;;;;;;1.65;1.55;;;;;;;;;;5093513;28;20028;-82
2022/12/20 03:08:35;;;;;;;4.18;2.25;;;;;;;;;;5094433;28;20031;-82
2022/12/20 03:11:00;;;;;;;1.00;0.90;;;;;;;;;;5096883;28;20107;-82
2022/12/20 03:13:26;;;;;;;1.38;1.23;;;;;;;;;;5092022;28;20021;-83
2022/12/20 03:15:51;;;;;;;1.80;1.70;;;;;;;;;;5095858;28;20039;-82
2022/12/20 03:18:17;;;;;;;1.33;1.25;;;;;;;;;;5095378;28;20038;-82
2022/12/20 03:20:43;;;;;;;1.40;1.25;;;;;;;;;;5097644;28;20077;-81
2022/12/20 03:23:08;;;;;;;2.75;2.22;;;;;;;;;;5095943;28;20024;-82
2022/12/20 03:25:34;;;;;;;2.22;1.58;;;;;;;;;;5097374;28;20036;-82
2022/12/20 03:27:59;;;;;;;1.85;1.25;;;;;;;;;;5097039;28;20020;-82
2022/12/20 03:30:25;;;;;;;2.33;2.13;;;;;;;;;;5096295;28;20091;-81
2022/12/20 03:32:50;;;;;;;1.42;1.02;;;;;;;;;;5093763;28;20032;-82
2022/12/20 03:35:18;;;;;;;1.13;1.13;;;;;;;;;;5095209;28;20464;-82
2022/12/20 03:37:43;;;;;;;2.20;1.58;;;;;;;;;;5094700;28;20361;-82
2022/12/20 03:40:09;;;;;;;1.08;1.00;;;;;;;;;;5097345;28;20035;-82
2022/12/20 03:42:36;;;;;;;1.38;1.27;;;;;;;;;;5095835;28;20429;-82
2022/12/20 03:45:01;;;;;;;14.30;1.73;;;;;;;;;;5094190;28;20024;-82
2022/12/20 03:47:27;;;;;;;1.75;0.93;;;;;;;;;;5094148;28;20046;-82
2022/12/20 03:49:52;;;;;;;1.08;1.02;;;;;;;;;;5096766;28;20028;-81
2022/12/20 03:52:18;;;;;;;1.65;1.55;;;;;;;;;;5093824;28;20024;-81
2022/12/20 03:54:43;;;;;;;1.52;1.40;;;;;;;;;;5095610;28;20410;-83
2022/12/20 03:57:09;;;;;;;5.22;3.08;;;;;;;;;;5091949;28;20976;-83
2022/12/20 03:59:34;;;;;;;3.03;1.25;;;;;;;;;;5097015;28;20032;-81
2022/12/20 04:02:00;;;;;;;2.10;1.38;;;;;;;;;;5094788;28;20052;-83
2022/12/20 04:04:26;;;;;;;0.93;0.93;;;;;;;;;;5096217;28;20028;-82
2022/12/20 04:06:51;;;;;;;1.25;1.15;;;;;;;;;;5096891;28;20115;-82
2022/12/20 04:09:17;;;;;;;2.88;1.65;;;;;;;;;;5095367;28;20034;-84
2022/12/20 04:11:42;;;;;;;1.60;1.13;;;;;;;;;;5097656;28;20036;-82
2022/12/20 04:14:08;;;;;;;1.63;1.52;;;;;;;;;;5094158;28;20027;-83
2022/12/20 04:16:33;;;;;;;1.45;1.35;;;;;;;;;;5096052;28;20494;-83
2022/12/20 04:18:58;;;;;;;1.13;1.02;;;;;;;;;;5096554;28;20119;-83
2022/12/20 04:21:26;;;;;;;0.80;0.77;;;;;;;;;;5096766;28;20104;-82
2022/12/20 04:23:52;;;;;;;1.63;1.13;;;;;;;;;;5098323;28;20070;-82
2022/12/20 04:26:18;;;;;;;1.88;1.75;;;;;;;;;;5096799;28;20028;-81
2022/12/20 04:28:43;;;;;;;1.27;1.25;;;;;;;;;;5093580;28;20024;-81
2022/12/20 04:31:09;;;;;;;4.25;1.77;;;;;;;;;;5093183;28;20380;-82
2022/12/20 04:33:35;;;;;;;1.77;1.67;;;;;;;;;;5095084;28;20569;-81
2022/12/20 04:36:00;;;;;;;2.67;1.88;;;;;;;;;;5094657;28;20045;-81
2022/12/20 04:38:25;;;;;;;2.45;1.40;;;;;;;;;;5094775;28;20112;-81
2022/12/20 04:40:53;;;;;;;1.77;1.67;;;;;;;;;;5094737;28;20047;-81
2022/12/20 04:43:19;;;;;;;0.70;0.68;;;;;;;;;;5093622;28;20024;-81
2022/12/20 04:45:52;;;;;;;3.30;2.28;;;;;;;;;;5093056;28;20059;-81
2022/12/20 04:48:19;;;;;;;1.42;1.33;;;;;;;;;;5094127;28;20024;-81
2022/12/20 04:50:48;;;;;;;1.55;1.45;;;;;;;;;;5093785;28;20084;-81
2022/12/20 04:55:58;;;;;;;1.75;0.98;;;;;;;;;;5087418;28;19937;-83
2022/12/20 04:58:24;;;;;;;1.17;1.10;;;;;;;;;;5087336;28;20020;-81
2022/12/20 05:00:51;;;;;;;1.83;1.73;;;;;;;;;;5092020;28;20031;-81
2022/12/20 05:03:17;;;;;;;2.13;2.03;;;;;;;;;;5091841;28;20040;-82
2022/12/20 05:05:42;;;;;;;2.25;2.03;;;;;;;;;;5091796;28;20028;-82
2022/12/20 05:08:08;;;;;;;2.13;2.03;;;;;;;;;;5092008;28;20020;-82
2022/12/20 05:10:33;;;;;;;1.73;1.13;;;;;;;;;;5083354;28;20039;-82
2022/12/20 05:12:58;;;;;;;2.30;2.10;;;;;;;;;;5093643;28;20024;-83
2022/12/20 05:15:24;;;;;;;1.15;1.05;;;;;;;;;;5087929;28;20008;-83
2022/12/20 05:17:49;;;;;;;2.20;1.58;;;;;;;;;;5088364;28;20020;-83
2022/12/20 05:20:15;;;;;;;1.10;1.02;;;;;;;;;;5091429;28;20027;-83
2022/12/20 05:28:08;;;;;;;2.28;1.52;;;;;;;;;;5090417;28;20486;-83
2022/12/20 05:30:33;;;;;;;0.65;0.65;;;;;;;;;;5088469;28;20103;-85
2022/12/20 05:32:59;;;;;;;3.13;2.65;;;;;;;;;;5092429;28;20039;-83
2022/12/20 05:35:24;;;;;;;3.75;2.30;;;;;;;;;;5092011;28;20031;-84
2022/12/20 05:37:49;;;;;;;1.15;1.10;;;;;;;;;;5090883;28;20078;-84
2022/12/20 05:40:16;;;;;;;1.92;1.77;;;;;;;;;;5093284;28;20024;-85
2022/12/20 05:42:42;;;;;;;1.08;0.70;;;;;;;;;;5088145;28;20478;-84
2022/12/20 05:45:07;;;;;;;1.75;1.15;;;;;;;;;;5093671;28;20028;-84
2022/12/20 05:47:33;;;;;;;3.58;1.80;;;;;;;;;;5088130;28;20032;-85
2022/12/20 05:50:02;;;;;;;1.65;1.55;;;;;;;;;;5087156;28;20111;-83
2022/12/20 05:52:28;;;;;;;;;;;;;;;;;;5090877;28;20047;-84
2022/12/20 05:54:54;;;;;;;4.05;1.65;;;;;;;;;;5090641;28;20359;-86
2022/12/20 05:57:20;;;;;;;3.30;2.30;;;;;;;;;;5089560;28;20043;-83
2022/12/20 05:59:45;;;;;;;1.45;1.35;;;;;;;;;;5090792;28;20027;-85
2022/12/20 06:02:11;;;;;;;6.55;2.55;;;;;;;;;;5081039;28;20722;-85
2022/12/20 06:04:37;;;;;;;3.03;2.70;;;;;;;;;;5071306;28;20407;-82
2022/12/20 06:07:04;;;;;;;2.13;1.70;;;;;;;;;;5050965;28;20388;-84
2022/12/20 06:09:29;;;;;;;1.50;1.38;;;;;;;;;;5052385;28;20039;-82
2022/12/20 06:11:55;;;;;;;1.08;1.05;;;;;;;;;;5070931;28;20041;-85
2022/12/20 06:14:20;;;;;;;0.93;0.90;;;;;;;;;;5072122;28;20091;-82
2022/12/20 06:16:46;;;;;;;3.28;1.83;;;;;;;;;;5053940;28;20436;-82
2022/12/20 06:19:11;;;;;;;3.40;2.22;;;;;;;;;;5054221;28;20134;-82
2022/12/20 06:21:37;;;;;;;2.83;1.58;;;;;;;;;;5051479;28;20465;-83
2022/12/20 06:24:02;;;;;;;1.08;1.05;;;;;;;;;;5053515;28;20024;-82
2022/12/20 06:26:34;;;;;;;2.75;1.08;;;;;;;;;;5053601;28;20061;-84
2022/12/20 06:29:01;;;;;;;3.30;2.17;;;;;;;;;;5052564;28;20107;-84
2022/12/20 06:31:26;;;;;;;2.22;2.03;;;;;;;;;;5070611;28;20430;-84
2022/12/20 06:33:52;;;;;;;3.13;1.65;;;;;;;;;;5066792;28;20025;-86
2022/12/20 06:36:17;;;;;;;1.45;1.35;;;;;;;;;;5052409;28;20383;-85
2022/12/20 06:38:43;;;;;;;3.30;1.77;;;;;;;;;;5071036;28;20021;-85
2022/12/20 06:41:08;;;;;;;2.88;2.25;;;;;;;;;;5071628;28;20033;-82
2022/12/20 06:43:34;;;;;;;3.85;2.25;;;;;;;;;;5070310;28;20448;-87
2022/12/20 06:45:59;;;;;;;2.28;2.08;;;;;;;;;;5049010;28;20116;-85
2022/12/20 06:48:24;;;;;;;4.47;3.38;;;;;;;;;;5065279;28;20043;-85
2022/12/20 06:50:50;;;;;;;5.75;3.42;;;;;;;;;;5053219;28;20476;-86
2022/12/20 06:53:15;;;;;;;1.63;1.52;;;;;;;;;;5069326;28;20037;-84
2022/12/20 06:55:41;;;;;;;2.10;2.00;;;;;;;;;;5051306;28;20031;-85
2022/12/20 06:58:07;;;;;;;1.88;1.55;;;;;;;;;;5069996;28;20020;-85
2022/12/20 07:00:32;;;;;;;1.83;1.65;;;;;;;;;;5050044;28;20447;-85
2022/12/20 07:02:57;;;;;;;2.13;1.90;;;;;;;;;;5072543;28;20051;-84
2022/12/20 07:05:23;;;;;;;3.15;2.28;;;;;;;;;;5088857;28;20089;-87
2022/12/20 07:07:48;;;;;;;5.57;3.10;;;;;;;;;;5089083;28;20064;-85
2022/12/20 07:10:14;;;;;;;7.18;3.83;;;;;;;;;;5090629;28;20039;-87
2022/12/20 07:12:39;;;;;;;1.63;1.48;;;;;;;;;;5093665;28;20383;-87
2022/12/20 07:15:06;;;;;;;1.58;1.45;;;;;;;;;;5093587;28;20035;-85
2022/12/20 07:17:32;;;;;;;4.15;2.40;;;;;;;;;;5094834;28;20030;-85
2022/12/20 07:19:57;;;;;;;9.00;6.13;;;;;;;;;;5093066;28;20024;-86
2022/12/20 07:22:22;;;;;;;21.83;8.43;;;;;;;;;;5090897;28;20479;-85
2022/12/20 07:24:49;;;;;;;3.10;2.88;;;;;;;;;;5092385;28;20043;-86
2022/12/20 07:27:14;;;;;;;7.07;2.83;;;;;;;;;;5093082;28;20854;-83
2022/12/20 07:29:40;;;;;;;4.05;2.60;;;;;;;;;;5088132;28;20124;-85
2022/12/20 07:32:07;;;;;;;2.80;1.83;;;;;;;;;;5095434;28;20028;-84
2022/12/20 07:34:32;;;;;;;1.88;1.77;;;;;;;;;;5092339;28;20019;-84
2022/12/20 07:36:58;;;;;;;4.70;2.20;;;;;;;;;;5090657;28;20020;-84
2022/12/20 07:39:23;;;;;;;3.85;2.00;;;;;;;;;;5093111;28;20039;-85
2022/12/20 07:41:53;;;;;;;3.78;2.60;;;;;;;;;;5094281;28;20040;-86
2022/12/20 07:44:18;;;;;;;4.65;2.53;;;;;;;;;;5095957;28;20026;-84
2022/12/20 07:46:43;;;;;;;2.83;1.95;;;;;;;;;;5092281;28;20036;-87
2022/12/20 07:49:09;;;;;;;2.65;2.45;;;;;;;;;;5089552;28;20027;-82
2022/12/20 07:51:42;;;;;;;4.65;2.50;;;;;;;;;;5092248;28;20035;-85
2022/12/20 07:54:15;;;;;;;1.98;1.48;;;;;;;;;;5091223;28;20032;-84
2022/12/20 07:56:44;;;;;;;2.50;1.40;;;;;;;;;;5093920;28;20036;-83
2022/12/20 07:59:13;;;;;;;1.15;1.10;;;;;;;;;;5092148;28;20024;-84
2022/12/20 08:01:40;;;;;;;2.30;1.58;;;;;;;;;;5089568;28;20031;-87
2022/12/20 08:04:11;;;;;;;2.33;2.00;;;;;;;;;;5054904;28;20112;-84
2022/12/20 08:06:39;;;;;;;6.50;1.65;;;;;;;;;;5071792;28;20024;-84
2022/12/20 08:09:05;;;;;;;1.30;1.15;;;;;;;;;;5055723;28;20111;-85
2022/12/20 08:11:33;;;;;;;2.38;2.17;;;;;;;;;;5073076;28;20166;-87
2022/12/20 08:13:59;;;;;;;7.47;3.30;;;;;;;;;;5071977;28;20111;-86
2022/12/20 08:16:24;;;;;;;4.72;2.55;;;;;;;;;;5053094;28;20123;-85
2022/12/20 08:18:50;;;;;;;4.32;2.33;;;;;;;;;;5071574;28;20029;-84
2022/12/20 08:21:15;;;;;;;4.90;2.58;;;;;;;;;;5053552;28;20036;-86
2022/12/20 08:23:41;;;;;;;2.30;2.03;;;;;;;;;;5070383;28;20021;-85
2022/12/20 08:26:06;;;;;;;4.05;2.28;;;;;;;;;;5053800;28;20372;-85
2022/12/20 08:28:32;;;;;;;3.35;2.38;;;;;;;;;;5069103;28;20477;-87
2022/12/20 08:31:05;;;;;;;2.30;2.05;;;;;;;;;;5072150;28;20078;-85
2022/12/20 08:33:33;;;;;;;2.20;2.00;;;;;;;;;;5054524;28;20384;-87
2022/12/20 08:36:01;;;;;;;3.75;1.83;;;;;;;;;;5071082;28;20028;-88
2022/12/20 08:38:27;;;;;;;2.05;1.95;;;;;;;;;;5055732;28;20032;-84
2022/12/20 08:40:53;;;;;;;4.72;2.28;;;;;;;;;;5072011;28;20059;-86
2022/12/20 08:43:18;;;;;;;1.95;1.33;;;;;;;;;;5073678;28;20024;-84
2022/12/20 08:45:51;;;;;;;9.73;2.78;;;;;;;;;;5071334;28;20071;-89
2022/12/20 08:48:16;;;;;;;3.65;3.13;;;;;;;;;;5071954;28;20419;-85
2022/12/20 08:50:42;;;;;;;2.55;2.03;;;;;;;;;;5072466;28;20073;-86
2022/12/20 08:53:07;;;;;;;3.97;1.77;;;;;;;;;;5072089;28;20074;-86
2022/12/20 08:55:32;;;;;;;1.75;1.33;;;;;;;;;;5055250;28;20074;-86
2022/12/20 08:57:58;;;;;;;3.47;1.85;;;;;;;;;;5053710;28;20024;-87
2022/12/20 09:00:23;;;;;;;5.00;1.38;;;;;;;;;;5053993;28;20427;-86
2022/12/20 09:02:50;;;;;;;2.28;2.00;;;;;;;;;;5070523;28;20090;-87
2022/12/20 09:05:16;;;;;;;2.42;1.55;;;;;;;;;;5072887;28;20020;-86
2022/12/20 09:07:41;;;;;;;1.45;1.35;;;;;;;;;;5071762;28;20033;-86
2022/12/20 09:10:07;;;;;;;6.47;1.70;;;;;;;;;;5072785;28;20024;-88
2022/12/20 09:12:36;;;;;;;1.50;1.30;;;;;;;;;;5070461;28;20036;-88
2022/12/20 09:15:01;;;;;;;2.03;1.13;;;;;;;;;;5055469;28;20419;-87
2022/12/20 09:17:27;;;;;;;6.88;2.47;;;;;;;;;;5054810;28;20020;-87
2022/12/20 09:19:54;;;;;;;4.18;2.83;;;;;;;;;;5073331;28;20025;-87
2022/12/20 09:22:19;;;;;;;4.57;3.13;;;;;;;;;;5073129;28;20017;-87
2022/12/20 09:24:45;;;;;;;2.38;1.77;;;;;;;;;;5055118;28;20108;-88
2022/12/20 09:27:10;;;;;;;6.80;3.15;;;;;;;;;;5055081;28;20468;-87
2022/12/20 09:29:36;;;;;;;5.55;2.33;;;;;;;;;;5053580;28;20044;-86
2022/12/20 09:32:02;;;;;;;3.30;2.20;;;;;;;;;;5055433;28;20032;-87
2022/12/20 09:34:27;;;;;;;9.05;2.13;;;;;;;;;;5052196;28;21330;-88
2022/12/20 09:36:53;;;;;;;10.25;3.95;;;;;;;;;;5054355;28;20048;-87
2022/12/20 09:39:19;;;;;;;6.35;2.90;;;;;;;;;;5052567;28;20028;-88
2022/12/20 09:41:45;;;;;;;3.38;2.45;;;;;;;;;;5070660;28;20028;-86
2022/12/20 09:44:27;;;;;;;2.88;2.10;;;;;;;;;;5071450;28;20460;-86
2022/12/20 09:47:16;;;;;;;2.47;1.88;;;;;;;;;;5071471;28;20027;-87
2022/12/20 09:49:44;;;;;;;2.88;1.83;;;;;;;;;;5053250;28;20140;-86
2022/12/20 09:52:25;;;;;;;2.67;2.42;;;;;;;;;;5069608;28;20029;-86
2022/12/20 09:55:08;;;;;;;4.22;2.35;;;;;;;;;;5068165;28;20040;-87
2022/12/20 09:57:52;;;;;;;1.67;1.50;;;;;;;;;;5047622;28;20115;-87
2022/12/20 10:00:19;;;;;;;2.55;2.00;;;;;;;;;;5067800;28;20074;-82
2022/12/20 10:02:45;;;;;;;4.28;2.35;;;;;;;;;;5070166;28;20090;-84
2022/12/20 10:05:16;;;;;;;4.30;2.30;;;;;;;;;;5089358;28;20020;-82
2022/12/20 10:09:36;;;;;;;5.30;2.15;;;;;;;;;;5077498;28;20703;-85
2022/12/20 10:12:27;;;;;;;5.43;2.22;;;;;;;;;;5074517;28;20119;-85
2022/12/20 10:14:55;;;;;;;2.92;2.38;;;;;;;;;;5075102;28;20029;-86
2022/12/20 10:17:37;;;;;;;4.25;3.08;;;;;;;;;;5069297;28;20025;-83
2022/12/20 10:20:29;;;;;;;1.27;1.15;;;;;;;;;;5076411;28;20032;-83
2022/12/20 10:23:13;;;;;;;3.85;2.53;;;;;;;;;;5052502;28;20040;-85
2022/12/20 10:25:40;;;;;;;3.75;2.15;;;;;;;;;;5074518;28;20054;-83
2022/12/20 10:28:12;;;;;;;5.78;2.70;;;;;;;;;;5077698;28;20074;-84
2022/12/20 10:30:38;;;;;;;5.20;2.50;;;;;;;;;;5077711;28;20033;-82
2022/12/20 10:33:03;;;;;;;3.60;2.00;;;;;;;;;;5074445;28;20373;-81
2022/12/20 10:35:39;;;;;;;1.63;1.50;;;;;;;;;;5078676;28;20384;-83
2022/12/20 10:38:12;;;;;;;3.40;1.98;;;;;;;;;;5077297;28;20021;-86
2022/12/20 10:40:57;;;;;;;1.30;1.08;;;;;;;;;;5077594;28;20028;-86
2022/12/20 10:43:24;;;;;;;5.25;2.70;;;;;;;;;;5078323;28;20499;-85
2022/12/20 10:46:06;;;;;;;2.78;2.25;;;;;;;;;;5071586;28;20086;-84
2022/12/20 10:48:35;;;;;;;5.63;2.47;;;;;;;;;;5074889;28;20087;-84
2022/12/20 10:51:14;;;;;;;1.63;1.52;;;;;;;;;;5072987;28;20040;-84
2022/12/20 10:54:00;;;;;;;4.15;2.85;;;;;;;;;;5076837;28;20056;-85
2022/12/20 10:56:30;;;;;;;1.95;1.60;;;;;;;;;;5077958;28;20094;-84
2022/12/20 10:59:16;;;;;;;2.40;1.80;;;;;;;;;;5080107;28;20403;-84
2022/12/20 11:01:44;;;;;;;5.00;1.88;;;;;;;;;;5077697;28;20024;-83
2022/12/20 11:04:28;;;;;;;5.05;2.55;;;;;;;;;;5076927;28;20035;-82
2022/12/20 11:06:54;;;;;;;2.75;2.08;;;;;;;;;;5071656;28;20027;-83
2022/12/20 11:09:33;;;;;;;2.67;2.33;;;;;;;;;;5075285;28;20066;-83
2022/12/20 11:12:06;;;;;;;4.13;2.05;;;;;;;;;;5081785;28;20392;-84
2022/12/20 11:14:35;;;;;;;7.03;2.53;;;;;;;;;;5074332;28;20028;-84
2022/12/20 11:17:24;;;;;;;1.73;1.60;;;;;;;;;;5079696;28;20035;-85
2022/12/20 11:20:20;;;;;;;5.65;2.60;;;;;;;;;;5054994;28;20041;-84
2022/12/20 11:22:56;;;;;;;1.70;1.58;;;;;;;;;;5059185;28;20040;-84
2022/12/20 11:25:50;;;;;;;2.92;1.83;;;;;;;;;;5061466;28;20800;-85
2022/12/20 11:28:31;;;;;;;3.90;1.92;;;;;;;;;;5069147;28;20032;-85
2022/12/20 11:31:24;;;;;;;2.65;1.95;;;;;;;;;;5067049;28;20036;-84
2022/12/20 11:34:03;;;;;;;1.90;1.50;;;;;;;;;;5061721;28;20534;-85
2022/12/20 11:36:40;;;;;;;4.40;2.42;;;;;;;;;;5065277;28;20108;-85
2022/12/20 11:39:21;;;;;;;2.78;1.83;;;;;;;;;;5055492;28;20039;-85
2022/12/20 11:41:54;;;;;;;3.10;1.77;;;;;;;;;;5061875;28;20024;-84
2022/12/20 11:44:47;;;;;;;2.28;1.80;;;;;;;;;;5062376;28;20031;-84
2022/12/20 11:47:34;;;;;;;6.18;2.05;;;;;;;;;;5058959;28;20574;-84
2022/12/20 11:50:11;;;;;;;4.85;2.47;;;;;;;;;;5062854;28;20125;-85
2022/12/20 11:52:45;;;;;;;3.85;1.92;;;;;;;;;;5061697;28;20036;-85
2022/12/20 11:55:20;;;;;;;1.92;1.48;;;;;;;;;;5064036;28;20494;-85
2022/12/20 11:58:04;;;;;;;3.80;2.00;;;;;;;;;;5059687;28;20033;-84
2022/12/20 12:00:31;;;;;;;1.88;1.70;;;;;;;;;;5062056;28;20036;-84
2022/12/20 12:03:15;;;;;;;4.22;1.67;;;;;;;;;;5065704;28;20035;-85
2022/12/20 12:05:54;;;;;;;5.60;2.10;;;;;;;;;;5063883;28;20447;-85
2022/12/20 12:08:43;;;;;;;3.08;1.83;;;;;;;;;;5063669;28;20033;-85
2022/12/20 12:11:18;;;;;;;3.65;2.72;;;;;;;;;;5065076;28;20037;-84
2022/12/20 12:13:44;;;;;;;1.98;1.60;;;;;;;;;;5058280;28;20032;-85
2022/12/20 12:16:22;;;;;;;2.25;1.55;;;;;;;;;;5064462;28;20480;-84
2022/12/20 12:18:47;;;;;;;4.15;2.80;;;;;;;;;;5061213;28;20021;-84
2022/12/20 12:21:22;;;;;;;3.40;2.72;;;;;;;;;;5065205;28;20094;-84
2022/12/20 12:24:07;;;;;;;2.25;1.65;;;;;;;;;;5065983;28;20100;-84
2022/12/20 12:26:40;;;;;;;1.75;1.52;;;;;;;;;;5057976;28;20031;-84
2022/12/20 12:29:12;;;;;;;3.38;1.75;;;;;;;;;;5058193;28;20464;-85
2022/12/20 12:31:40;;;;;;;3.92;2.38;;;;;;;;;;5061342;28;20094;-84
2022/12/20 12:34:39;;;;;;;2.60;1.50;;;;;;;;;;5055641;28;20024;-83
2022/12/20 12:37:08;;;;;;;1.67;1.30;;;;;;;;;;5063024;28;20052;-84
2022/12/20 12:39:42;;;;;;;2.30;2.13;;;;;;;;;;5057762;28;20031;-84
2022/12/20 12:42:19;;;;;;;3.67;2.70;;;;;;;;;;5060160;28;20074;-85
2022/12/20 12:45:03;;;;;;;3.25;2.65;;;;;;;;;;5064144;28;20384;-84
2022/12/20 12:47:44;;;;;;;5.03;3.60;;;;;;;;;;5058030;28;20404;-84
2022/12/20 12:50:22;;;;;;;2.83;2.50;;;;;;;;;;5059747;28;20491;-84
2022/12/20 12:52:52;;;;;;;3.25;2.30;;;;;;;;;;5059074;28;20031;-85
2022/12/20 12:55:38;;;;;;;6.10;2.40;;;;;;;;;;5055111;28;20578;-85
2022/12/20 12:58:22;;;;;;;3.20;1.98;;;;;;;;;;5062645;28;20033;-85
2022/12/20 13:00:55;;;;;;;3.40;2.55;;;;;;;;;;5059575;28;20043;-84
2022/12/20 13:03:36;;;;;;;3.70;1.50;;;;;;;;;;5054013;28;20158;-85
2022/12/20 13:06:24;;;;;;;4.35;2.15;;;;;;;;;;5059795;28;20039;-85
2022/12/20 13:09:15;;;;;;;1.77;1.52;;;;;;;;;;5058401;28;20045;-84
2022/12/20 13:11:41;;;;;;;3.33;2.22;;;;;;;;;;5042207;28;20029;-85
2022/12/20 13:14:30;;;;;;;3.58;2.78;;;;;;;;;;5057804;28;20119;-85
2022/12/20 13:17:01;;;;;;;12.05;3.00;;;;;;;;;;5055125;28;20068;-82
2022/12/20 13:19:26;;;;;;;2.53;2.28;;;;;;;;;;5052005;28;20032;-84
2022/12/20 13:21:54;;;;;;;4.50;2.47;;;;;;;;;;5062654;28;20024;-85
2022/12/20 13:24:37;;;;;;;1.98;1.80;;;;;;;;;;5053671;28;20021;-83
2022/12/20 13:27:14;;;;;;;1.52;1.38;;;;;;;;;;5056650;28;20429;-84
2022/12/20 13:29:51;;;;;;;5.82;2.15;;;;;;;;;;5059111;28;20029;-84
2022/12/20 13:32:46;;;;;;;3.70;1.17;;;;;;;;;;5057650;28;20082;-83
2022/12/20 13:35:23;;;;;;;4.57;1.50;;;;;;;;;;5056018;28;20033;-83
2022/12/20 13:38:11;;;;;;;2.35;1.15;;;;;;;;;;5059513;28;20025;-84
2022/12/20 13:40:43;;;;;;;2.30;2.10;;;;;;;;;;5063379;28;20056;-84
2022/12/20 13:43:20;;;;;;;2.05;1.75;;;;;;;;;;5056082;28;20041;-84
2022/12/20 13:46:09;;;;;;;3.72;2.05;;;;;;;;;;5052226;28;20115;-83
2022/12/20 13:48:41;;;;;;;1.08;0.98;;;;;;;;;;5053519;28;20024;-84
2022/12/20 13:51:07;;;;;;;4.85;2.63;;;;;;;;;;5056259;28;20055;-83
2022/12/20 13:53:34;;;;;;;2.53;2.28;;;;;;;;;;5060898;28;20043;-82
2022/12/20 13:56:28;;;;;;;2.75;1.00;;;;;;;;;;5067617;28;20391;-83
2022/12/20 13:59:03;;;;;;;1.48;1.10;;;;;;;;;;5051708;28;20021;-83
2022/12/20 14:01:30;;;;;;;1.42;1.20;;;;;;;;;;5058296;28;20118;-83
2022/12/20 14:03:56;;;;;;;4.05;3.40;;;;;;;;;;5060431;28;20021;-82
2022/12/20 14:06:24;;;;;;;2.08;1.88;;;;;;;;;;5056808;28;20029;-83
2022/12/20 14:08:51;;;;;;;4.85;2.22;;;;;;;;;;5058328;28;20853;-83
2022/12/20 14:11:22;;;;;;;1.70;1.25;;;;;;;;;;5060157;28;20032;-84
2022/12/20 14:14:02;;;;;;;1.25;1.13;;;;;;;;;;5066412;28;20369;-83
2022/12/20 14:16:30;;;;;;;4.05;2.00;;;;;;;;;;5056213;28;20021;-83
2022/12/20 14:18:55;;;;;;;3.67;2.60;;;;;;;;;;5056386;28;20040;-83
2022/12/20 14:21:22;;;;;;;3.05;2.03;;;;;;;;;;5051057;28;20469;-82
2022/12/20 14:23:50;;;;;;;1.15;1.08;;;;;;;;;;5060727;28;20525;-82
2022/12/20 14:26:28;;;;;;;5.88;2.08;;;;;;;;;;5064023;28;20025;-83
2022/12/20 14:28:56;;;;;;;2.08;1.88;;;;;;;;;;5057295;28;20024;-83
2022/12/20 14:31:42;;;;;;;3.33;1.70;;;;;;;;;;5056963;28;20028;-83
2022/12/20 14:34:10;;;;;;;2.20;1.85;;;;;;;;;;5058880;28;20039;-83
2022/12/20 14:36:38;;;;;;;7.05;1.77;;;;;;;;;;5056467;28;20129;-83
2022/12/20 14:39:28;;;;;;;3.42;1.63;;;;;;;;;;5059096;28;20086;-82
2022/12/20 14:41:58;;;;;;;1.10;0.90;;;;;;;;;;5059685;28;20090;-83
2022/12/20 14:44:26;;;;;;;2.80;1.90;;;;;;;;;;5057460;28;20104;-82
2022/12/20 14:47:04;;;;;;;3.00;2.05;;;;;;;;;;5057503;28;20037;-82
2022/12/20 14:49:37;;;;;;;2.33;1.45;;;;;;;;;;5058510;28;20025;-83
2022/12/20 14:52:11;;;;;;;0.85;0.85;;;;;;;;;;5055522;28;20031;-83
2022/12/20 14:54:55;;;;;;;2.30;1.83;;;;;;;;;;5057487;28;20059;-83
2022/12/20 14:57:36;;;;;;;1.70;1.55;;;;;;;;;;5056518;28;20032;-81
2022/12/20 15:00:10;;;;;;;0.98;0.57;;;;;;;;;;5049736;28;20068;-84
2022/12/20 15:03:00;;;;;;;1.50;1.00;;;;;;;;;;5054065;28;20040;-84
2022/12/20 15:05:34;;;;;;;2.63;1.77;;;;;;;;;;5065081;28;20083;-84
2022/12/20 15:08:12;;;;;;;1.58;1.38;;;;;;;;;;5058893;28;20056;-83
2022/12/20 15:10:41;;;;;;;4.53;2.10;;;;;;;;;;5066974;28;20032;-84
2022/12/20 15:13:12;;;;;;;4.35;1.58;;;;;;;;;;5058576;28;20120;-83